sensor_id;sensor_type;location;lat;lon;timestamp;P1;durP1;ratioP1;P2;durP2;ratioP2
13941;SDS011;7043;51.630;7.254;2024-02-26T00:01:43;5.40;;;4.60;;
13941;SDS011;7043;51.630;7.254;2024-02-26T00:04:10;5.70;;;4.53;;
13941;SDS011;7043;51.630;7.254;2024-02-26T00:06:37;5.03;;;4.53;;
13941;SDS011;7043;51.630;7.254;2024-02-26T00:09:06;5.27;;;4.50;;
13941;SDS011;7043;51.630;7.254;2024-02-26T00:11:32;5.20;;;3.80;;
13941;SDS011;7043;51.630;7.254;2024-02-26T00:13:58;4.63;;;3.73;;
13941;SDS011;7043;51.630;7.254;2024-02-26T00:16:24;3.67;;;3.37;;
13941;SDS011;7043;51.630;7.254;2024-02-26T00:18:50;3.43;;;3.13;;
13941;SDS011;7043;51.630;7.254;2024-02-26T00:21:16;4.17;;;3.40;;
13941;SDS011;7043;51.630;7.254;2024-02-26T00:23:42;4.07;;;3.30;;
13941;SDS011;7043;51.630;7.254;2024-02-26T00:26:08;3.70;;;3.13;;
13941;SDS011;7043;51.630;7.254;2024-02-26T00:28:35;3.40;;;3.10;;
13941;SDS011;7043;51.630;7.254;2024-02-26T00:31:01;3.67;;;3.13;;
13941;SDS011;7043;51.630;7.254;2024-02-26T00:33:27;3.40;;;3.10;;
13941;SDS011;7043;51.630;7.254;2024-02-26T00:35:54;3.93;;;3.50;;
13941;SDS011;7043;51.630;7.254;2024-02-26T00:38:20;3.57;;;3.27;;
13941;SDS011;7043;51.630;7.254;2024-02-26T00:40:46;3.00;;;2.80;;
13941;SDS011;7043;51.630;7.254;2024-02-26T00:43:11;3.57;;;3.20;;
13941;SDS011;7043;51.630;7.254;2024-02-26T00:45:38;3.80;;;3.27;;
13941;SDS011;7043;51.630;7.254;2024-02-26T00:48:04;3.40;;;3.10;;
13941;SDS011;7043;51.630;7.254;2024-02-26T00:50:33;5.03;;;3.30;;
13941;SDS011;7043;51.630;7.254;2024-02-26T00:53:00;3.80;;;2.83;;
13941;SDS011;7043;51.630;7.254;2024-02-26T00:55:26;3.27;;;2.97;;
13941;SDS011;7043;51.630;7.254;2024-02-26T00:57:52;3.50;;;3.20;;
13941;SDS011;7043;51.630;7.254;2024-02-26T01:00:18;3.30;;;3.00;;
13941;SDS011;7043;51.630;7.254;2024-02-26T01:02:44;4.07;;;2.87;;
13941;SDS011;7043;51.630;7.254;2024-02-26T01:05:13;3.03;;;2.53;;
13941;SDS011;7043;51.630;7.254;2024-02-26T01:07:39;3.03;;;2.80;;
13941;SDS011;7043;51.630;7.254;2024-02-26T01:10:05;3.13;;;2.60;;
13941;SDS011;7043;51.630;7.254;2024-02-26T01:12:32;3.50;;;2.90;;
13941;SDS011;7043;51.630;7.254;2024-02-26T01:14:59;3.57;;;3.00;;
13941;SDS011;7043;51.630;7.254;2024-02-26T01:17:28;3.17;;;2.80;;
13941;SDS011;7043;51.630;7.254;2024-02-26T01:19:54;3.50;;;2.70;;
13941;SDS011;7043;51.630;7.254;2024-02-26T01:22:20;3.00;;;2.70;;
13941;SDS011;7043;51.630;7.254;2024-02-26T01:24:46;2.97;;;2.63;;
13941;SDS011;7043;51.630;7.254;2024-02-26T01:27:12;3.90;;;2.83;;
13941;SDS011;7043;51.630;7.254;2024-02-26T01:29:40;2.93;;;2.63;;
13941;SDS011;7043;51.630;7.254;2024-02-26T01:32:06;2.90;;;2.57;;
13941;SDS011;7043;51.630;7.254;2024-02-26T01:34:32;2.80;;;2.60;;
13941;SDS011;7043;51.630;7.254;2024-02-26T01:36:58;2.73;;;2.40;;
13941;SDS011;7043;51.630;7.254;2024-02-26T01:39:24;3.43;;;2.60;;
13941;SDS011;7043;51.630;7.254;2024-02-26T01:41:51;2.80;;;2.60;;
13941;SDS011;7043;51.630;7.254;2024-02-26T01:44:17;2.90;;;2.60;;
13941;SDS011;7043;51.630;7.254;2024-02-26T01:46:43;2.70;;;2.50;;
13941;SDS011;7043;51.630;7.254;2024-02-26T01:49:08;2.90;;;2.70;;
13941;SDS011;7043;51.630;7.254;2024-02-26T01:51:37;2.30;;;2.10;;
13941;SDS011;7043;51.630;7.254;2024-02-26T01:54:04;2.50;;;2.00;;
13941;SDS011;7043;51.630;7.254;2024-02-26T01:56:30;2.67;;;2.20;;
13941;SDS011;7043;51.630;7.254;2024-02-26T01:59:00;3.40;;;2.50;;
13941;SDS011;7043;51.630;7.254;2024-02-26T02:01:27;3.00;;;2.70;;
13941;SDS011;7043;51.630;7.254;2024-02-26T02:03:56;2.57;;;2.37;;
13941;SDS011;7043;51.630;7.254;2024-02-26T02:06:23;2.50;;;2.30;;
13941;SDS011;7043;51.630;7.254;2024-02-26T02:08:49;4.10;;;2.87;;
13941;SDS011;7043;51.630;7.254;2024-02-26T02:11:15;3.27;;;2.63;;
13941;SDS011;7043;51.630;7.254;2024-02-26T02:13:42;3.17;;;2.87;;
13941;SDS011;7043;51.630;7.254;2024-02-26T02:16:08;2.80;;;2.60;;
13941;SDS011;7043;51.630;7.254;2024-02-26T02:18:34;2.97;;;2.60;;
13941;SDS011;7043;51.630;7.254;2024-02-26T02:21:00;3.33;;;2.40;;
13941;SDS011;7043;51.630;7.254;2024-02-26T02:23:26;3.20;;;2.47;;
13941;SDS011;7043;51.630;7.254;2024-02-26T02:25:52;2.70;;;2.50;;
13941;SDS011;7043;51.630;7.254;2024-02-26T02:28:20;3.27;;;3.07;;
13941;SDS011;7043;51.630;7.254;2024-02-26T02:30:46;3.37;;;3.07;;
13941;SDS011;7043;51.630;7.254;2024-02-26T02:33:12;2.90;;;2.70;;
13941;SDS011;7043;51.630;7.254;2024-02-26T02:35:40;3.10;;;2.80;;
13941;SDS011;7043;51.630;7.254;2024-02-26T02:38:06;5.83;;;3.20;;
13941;SDS011;7043;51.630;7.254;2024-02-26T02:40:32;3.00;;;2.80;;
13941;SDS011;7043;51.630;7.254;2024-02-26T02:42:58;3.30;;;3.00;;
13941;SDS011;7043;51.630;7.254;2024-02-26T02:45:25;3.07;;;2.77;;
13941;SDS011;7043;51.630;7.254;2024-02-26T02:47:50;3.17;;;2.70;;
13941;SDS011;7043;51.630;7.254;2024-02-26T02:50:16;3.30;;;3.00;;
13941;SDS011;7043;51.630;7.254;2024-02-26T02:52:42;3.57;;;3.10;;
13941;SDS011;7043;51.630;7.254;2024-02-26T02:55:09;3.07;;;2.87;;
13941;SDS011;7043;51.630;7.254;2024-02-26T02:57:35;3.20;;;3.00;;
13941;SDS011;7043;51.630;7.254;2024-02-26T03:00:06;3.70;;;3.40;;
13941;SDS011;7043;51.630;7.254;2024-02-26T03:02:32;2.87;;;2.67;;
13941;SDS011;7043;51.630;7.254;2024-02-26T03:05:00;3.40;;;3.10;;
13941;SDS011;7043;51.630;7.254;2024-02-26T03:07:27;3.60;;;3.30;;
13941;SDS011;7043;51.630;7.254;2024-02-26T03:09:53;3.27;;;2.97;;
13941;SDS011;7043;51.630;7.254;2024-02-26T03:12:19;3.57;;;3.27;;
13941;SDS011;7043;51.630;7.254;2024-02-26T03:14:45;3.93;;;3.27;;
13941;SDS011;7043;51.630;7.254;2024-02-26T03:17:11;3.43;;;3.17;;
13941;SDS011;7043;51.630;7.254;2024-02-26T03:19:37;4.00;;;3.30;;
13941;SDS011;7043;51.630;7.254;2024-02-26T03:22:03;3.43;;;3.13;;
13941;SDS011;7043;51.630;7.254;2024-02-26T03:24:29;3.40;;;3.10;;
13941;SDS011;7043;51.630;7.254;2024-02-26T03:26:55;3.77;;;3.17;;
13941;SDS011;7043;51.630;7.254;2024-02-26T03:29:21;3.50;;;3.00;;
13941;SDS011;7043;51.630;7.254;2024-02-26T03:31:47;2.93;;;2.70;;
13941;SDS011;7043;51.630;7.254;2024-02-26T03:34:13;3.33;;;3.03;;
13941;SDS011;7043;51.630;7.254;2024-02-26T03:36:39;2.90;;;2.70;;
13941;SDS011;7043;51.630;7.254;2024-02-26T03:39:06;3.10;;;2.80;;
13941;SDS011;7043;51.630;7.254;2024-02-26T03:41:32;2.90;;;2.70;;
13941;SDS011;7043;51.630;7.254;2024-02-26T03:43:59;3.33;;;3.03;;
13941;SDS011;7043;51.630;7.254;2024-02-26T03:46:25;2.90;;;2.60;;
13941;SDS011;7043;51.630;7.254;2024-02-26T03:48:51;2.93;;;2.73;;
13941;SDS011;7043;51.630;7.254;2024-02-26T03:51:17;3.63;;;2.90;;
13941;SDS011;7043;51.630;7.254;2024-02-26T03:53:43;3.13;;;2.93;;
13941;SDS011;7043;51.630;7.254;2024-02-26T03:56:09;3.37;;;2.73;;
13941;SDS011;7043;51.630;7.254;2024-02-26T03:58:36;3.50;;;3.03;;
13941;SDS011;7043;51.630;7.254;2024-02-26T04:01:02;3.17;;;2.87;;
13941;SDS011;7043;51.630;7.254;2024-02-26T04:03:28;3.37;;;2.90;;
13941;SDS011;7043;51.630;7.254;2024-02-26T04:05:54;2.93;;;2.60;;
13941;SDS011;7043;51.630;7.254;2024-02-26T04:08:20;2.83;;;2.63;;
13941;SDS011;7043;51.630;7.254;2024-02-26T04:10:47;2.60;;;2.40;;
13941;SDS011;7043;51.630;7.254;2024-02-26T04:13:13;2.57;;;2.37;;
13941;SDS011;7043;51.630;7.254;2024-02-26T04:15:39;3.10;;;2.67;;
13941;SDS011;7043;51.630;7.254;2024-02-26T04:18:05;2.90;;;2.70;;
13941;SDS011;7043;51.630;7.254;2024-02-26T04:20:31;2.80;;;2.60;;
13941;SDS011;7043;51.630;7.254;2024-02-26T04:22:57;2.53;;;2.30;;
13941;SDS011;7043;51.630;7.254;2024-02-26T04:25:23;3.10;;;2.80;;
13941;SDS011;7043;51.630;7.254;2024-02-26T04:27:49;2.80;;;2.50;;
13941;SDS011;7043;51.630;7.254;2024-02-26T04:30:15;4.40;;;2.83;;
13941;SDS011;7043;51.630;7.254;2024-02-26T04:32:42;4.33;;;2.80;;
13941;SDS011;7043;51.630;7.254;2024-02-26T04:35:09;3.20;;;2.90;;
13941;SDS011;7043;51.630;7.254;2024-02-26T04:37:35;5.20;;;3.20;;
13941;SDS011;7043;51.630;7.254;2024-02-26T04:40:01;3.10;;;2.90;;
13941;SDS011;7043;51.630;7.254;2024-02-26T04:42:27;3.17;;;2.87;;
13941;SDS011;7043;51.630;7.254;2024-02-26T04:44:54;3.33;;;3.03;;
13941;SDS011;7043;51.630;7.254;2024-02-26T04:47:20;3.67;;;3.37;;
13941;SDS011;7043;51.630;7.254;2024-02-26T04:49:49;3.97;;;3.57;;
13941;SDS011;7043;51.630;7.254;2024-02-26T04:52:16;4.03;;;3.70;;
13941;SDS011;7043;51.630;7.254;2024-02-26T04:54:41;3.90;;;3.60;;
13941;SDS011;7043;51.630;7.254;2024-02-26T04:57:07;4.13;;;3.70;;
13941;SDS011;7043;51.630;7.254;2024-02-26T04:59:33;4.40;;;3.80;;
13941;SDS011;7043;51.630;7.254;2024-02-26T05:01:59;3.80;;;3.50;;
13941;SDS011;7043;51.630;7.254;2024-02-26T05:04:25;3.80;;;3.50;;
13941;SDS011;7043;51.630;7.254;2024-02-26T05:06:51;3.87;;;3.57;;
13941;SDS011;7043;51.630;7.254;2024-02-26T05:09:18;4.23;;;3.83;;
13941;SDS011;7043;51.630;7.254;2024-02-26T05:11:44;3.93;;;3.17;;
13941;SDS011;7043;51.630;7.254;2024-02-26T05:14:10;3.93;;;3.30;;
13941;SDS011;7043;51.630;7.254;2024-02-26T05:16:36;3.37;;;3.07;;
13941;SDS011;7043;51.630;7.254;2024-02-26T05:19:02;3.60;;;3.30;;
13941;SDS011;7043;51.630;7.254;2024-02-26T05:21:28;4.07;;;2.90;;
13941;SDS011;7043;51.630;7.254;2024-02-26T05:23:54;3.53;;;3.17;;
13941;SDS011;7043;51.630;7.254;2024-02-26T05:26:21;3.27;;;3.00;;
13941;SDS011;7043;51.630;7.254;2024-02-26T05:28:47;3.53;;;3.10;;
13941;SDS011;7043;51.630;7.254;2024-02-26T05:31:13;3.50;;;3.20;;
13941;SDS011;7043;51.630;7.254;2024-02-26T05:33:39;3.73;;;3.13;;
13941;SDS011;7043;51.630;7.254;2024-02-26T05:36:05;3.43;;;3.13;;
13941;SDS011;7043;51.630;7.254;2024-02-26T05:38:32;3.23;;;2.93;;
13941;SDS011;7043;51.630;7.254;2024-02-26T05:40:58;3.43;;;3.13;;
13941;SDS011;7043;51.630;7.254;2024-02-26T05:43:24;3.80;;;3.50;;
13941;SDS011;7043;51.630;7.254;2024-02-26T05:45:50;4.00;;;3.53;;
13941;SDS011;7043;51.630;7.254;2024-02-26T05:48:17;3.90;;;3.60;;
13941;SDS011;7043;51.630;7.254;2024-02-26T05:50:44;4.67;;;3.30;;
13941;SDS011;7043;51.630;7.254;2024-02-26T05:53:10;3.47;;;3.17;;
13941;SDS011;7043;51.630;7.254;2024-02-26T05:55:36;3.53;;;3.23;;
13941;SDS011;7043;51.630;7.254;2024-02-26T05:58:02;3.90;;;3.60;;
13941;SDS011;7043;51.630;7.254;2024-02-26T06:00:28;4.43;;;3.40;;
13941;SDS011;7043;51.630;7.254;2024-02-26T06:02:54;5.43;;;3.50;;
13941;SDS011;7043;51.630;7.254;2024-02-26T06:05:20;4.10;;;3.47;;
13941;SDS011;7043;51.630;7.254;2024-02-26T06:07:46;3.87;;;3.53;;
13941;SDS011;7043;51.630;7.254;2024-02-26T06:10:12;4.20;;;3.60;;
13941;SDS011;7043;51.630;7.254;2024-02-26T06:12:41;3.70;;;3.40;;
13941;SDS011;7043;51.630;7.254;2024-02-26T06:15:07;4.63;;;3.80;;
13941;SDS011;7043;51.630;7.254;2024-02-26T06:17:34;4.10;;;3.70;;
13941;SDS011;7043;51.630;7.254;2024-02-26T06:20:00;3.90;;;3.60;;
13941;SDS011;7043;51.630;7.254;2024-02-26T06:22:26;4.43;;;3.80;;
13941;SDS011;7043;51.630;7.254;2024-02-26T06:24:52;5.37;;;4.60;;
13941;SDS011;7043;51.630;7.254;2024-02-26T06:27:18;4.47;;;4.00;;
13941;SDS011;7043;51.630;7.254;2024-02-26T06:29:46;4.83;;;4.33;;
13941;SDS011;7043;51.630;7.254;2024-02-26T06:32:13;4.27;;;3.63;;
13941;SDS011;7043;51.630;7.254;2024-02-26T06:34:39;4.43;;;3.90;;
13941;SDS011;7043;51.630;7.254;2024-02-26T06:37:06;4.03;;;3.73;;
13941;SDS011;7043;51.630;7.254;2024-02-26T06:39:32;4.10;;;3.70;;
13941;SDS011;7043;51.630;7.254;2024-02-26T06:41:58;4.47;;;4.07;;
13941;SDS011;7043;51.630;7.254;2024-02-26T06:44:27;4.30;;;3.90;;
13941;SDS011;7043;51.630;7.254;2024-02-26T06:47:00;4.60;;;4.20;;
13941;SDS011;7043;51.630;7.254;2024-02-26T06:49:26;4.50;;;4.10;;
13941;SDS011;7043;51.630;7.254;2024-02-26T06:51:53;3.73;;;3.37;;
13941;SDS011;7043;51.630;7.254;2024-02-26T06:54:19;4.17;;;3.87;;
13941;SDS011;7043;51.630;7.254;2024-02-26T06:56:45;4.73;;;3.83;;
13941;SDS011;7043;51.630;7.254;2024-02-26T06:59:11;4.43;;;3.87;;
13941;SDS011;7043;51.630;7.254;2024-02-26T07:01:37;4.50;;;3.80;;
13941;SDS011;7043;51.630;7.254;2024-02-26T07:04:03;4.20;;;3.80;;
13941;SDS011;7043;51.630;7.254;2024-02-26T07:06:29;4.13;;;3.80;;
13941;SDS011;7043;51.630;7.254;2024-02-26T07:08:55;4.70;;;4.30;;
13941;SDS011;7043;51.630;7.254;2024-02-26T07:11:21;4.13;;;3.73;;
13941;SDS011;7043;51.630;7.254;2024-02-26T07:13:47;4.23;;;3.83;;
13941;SDS011;7043;51.630;7.254;2024-02-26T07:16:14;4.60;;;3.57;;
13941;SDS011;7043;51.630;7.254;2024-02-26T07:18:40;4.13;;;3.73;;
13941;SDS011;7043;51.630;7.254;2024-02-26T07:21:06;5.10;;;3.63;;
13941;SDS011;7043;51.630;7.254;2024-02-26T07:23:32;4.47;;;3.70;;
13941;SDS011;7043;51.630;7.254;2024-02-26T07:25:58;3.50;;;3.20;;
13941;SDS011;7043;51.630;7.254;2024-02-26T07:28:24;3.87;;;3.50;;
13941;SDS011;7043;51.630;7.254;2024-02-26T07:30:50;3.70;;;3.40;;
13941;SDS011;7043;51.630;7.254;2024-02-26T07:33:16;4.07;;;2.93;;
13941;SDS011;7043;51.630;7.254;2024-02-26T07:35:42;3.53;;;3.23;;
13941;SDS011;7043;51.630;7.254;2024-02-26T07:38:08;3.57;;;3.00;;
13941;SDS011;7043;51.630;7.254;2024-02-26T07:40:34;3.63;;;3.13;;
13941;SDS011;7043;51.630;7.254;2024-02-26T07:43:01;5.93;;;3.57;;
13941;SDS011;7043;51.630;7.254;2024-02-26T07:45:27;3.63;;;3.20;;
13941;SDS011;7043;51.630;7.254;2024-02-26T07:47:53;3.80;;;3.20;;
13941;SDS011;7043;51.630;7.254;2024-02-26T07:50:19;4.33;;;3.70;;
13941;SDS011;7043;51.630;7.254;2024-02-26T07:52:45;3.97;;;3.40;;
13941;SDS011;7043;51.630;7.254;2024-02-26T07:55:11;4.33;;;3.93;;
13941;SDS011;7043;51.630;7.254;2024-02-26T07:57:37;3.77;;;3.47;;
13941;SDS011;7043;51.630;7.254;2024-02-26T08:00:03;4.60;;;3.73;;
13941;SDS011;7043;51.630;7.254;2024-02-26T08:02:32;3.67;;;3.37;;
13941;SDS011;7043;51.630;7.254;2024-02-26T08:04:59;4.20;;;3.50;;
13941;SDS011;7043;51.630;7.254;2024-02-26T08:07:25;3.40;;;3.10;;
13941;SDS011;7043;51.630;7.254;2024-02-26T08:09:51;4.57;;;3.33;;
13941;SDS011;7043;51.630;7.254;2024-02-26T08:12:17;4.97;;;3.63;;
13941;SDS011;7043;51.630;7.254;2024-02-26T08:14:43;3.93;;;3.53;;
13941;SDS011;7043;51.630;7.254;2024-02-26T08:17:09;3.90;;;3.50;;
13941;SDS011;7043;51.630;7.254;2024-02-26T08:19:35;3.83;;;3.33;;
13941;SDS011;7043;51.630;7.254;2024-02-26T08:22:01;3.10;;;2.63;;
13941;SDS011;7043;51.630;7.254;2024-02-26T08:24:27;3.20;;;2.90;;
13941;SDS011;7043;51.630;7.254;2024-02-26T08:26:53;3.10;;;2.80;;
13941;SDS011;7043;51.630;7.254;2024-02-26T08:29:19;3.20;;;2.87;;
13941;SDS011;7043;51.630;7.254;2024-02-26T08:31:45;3.43;;;2.63;;
13941;SDS011;7043;51.630;7.254;2024-02-26T08:34:11;3.17;;;2.50;;
13941;SDS011;7043;51.630;7.254;2024-02-26T08:36:37;2.33;;;2.13;;
13941;SDS011;7043;51.630;7.254;2024-02-26T08:39:03;2.30;;;2.10;;
13941;SDS011;7043;51.630;7.254;2024-02-26T08:41:29;2.70;;;2.50;;
13941;SDS011;7043;51.630;7.254;2024-02-26T08:43:55;2.40;;;2.20;;
13941;SDS011;7043;51.630;7.254;2024-02-26T08:46:21;2.83;;;2.53;;
13941;SDS011;7043;51.630;7.254;2024-02-26T08:48:47;2.97;;;2.60;;
13941;SDS011;7043;51.630;7.254;2024-02-26T08:51:13;3.20;;;2.90;;
13941;SDS011;7043;51.630;7.254;2024-02-26T08:53:39;3.07;;;2.77;;
13941;SDS011;7043;51.630;7.254;2024-02-26T08:56:05;3.93;;;3.07;;
13941;SDS011;7043;51.630;7.254;2024-02-26T08:58:31;3.70;;;3.40;;
13941;SDS011;7043;51.630;7.254;2024-02-26T09:00:57;3.50;;;3.20;;
13941;SDS011;7043;51.630;7.254;2024-02-26T09:03:23;3.50;;;3.20;;
13941;SDS011;7043;51.630;7.254;2024-02-26T09:05:49;3.40;;;3.07;;
13941;SDS011;7043;51.630;7.254;2024-02-26T09:08:15;3.27;;;2.97;;
13941;SDS011;7043;51.630;7.254;2024-02-26T09:10:41;3.10;;;2.80;;
13941;SDS011;7043;51.630;7.254;2024-02-26T09:13:07;3.00;;;2.80;;
13941;SDS011;7043;51.630;7.254;2024-02-26T09:15:33;3.60;;;3.30;;
13941;SDS011;7043;51.630;7.254;2024-02-26T09:17:59;4.33;;;3.60;;
13941;SDS011;7043;51.630;7.254;2024-02-26T09:20:26;2.83;;;2.60;;
13941;SDS011;7043;51.630;7.254;2024-02-26T09:22:52;3.00;;;2.70;;
13941;SDS011;7043;51.630;7.254;2024-02-26T09:25:18;3.27;;;2.60;;
13941;SDS011;7043;51.630;7.254;2024-02-26T09:27:44;4.40;;;3.03;;
13941;SDS011;7043;51.630;7.254;2024-02-26T09:30:11;3.53;;;2.80;;
13941;SDS011;7043;51.630;7.254;2024-02-26T09:32:37;2.90;;;2.40;;
13941;SDS011;7043;51.630;7.254;2024-02-26T09:35:04;3.17;;;2.50;;
13941;SDS011;7043;51.630;7.254;2024-02-26T09:37:30;3.37;;;2.73;;
13941;SDS011;7043;51.630;7.254;2024-02-26T09:39:56;3.07;;;2.73;;
13941;SDS011;7043;51.630;7.254;2024-02-26T09:42:24;3.10;;;2.80;;
13941;SDS011;7043;51.630;7.254;2024-02-26T09:44:51;3.67;;;3.37;;
13941;SDS011;7043;51.630;7.254;2024-02-26T09:47:19;3.87;;;3.47;;
13941;SDS011;7043;51.630;7.254;2024-02-26T09:49:47;4.43;;;3.50;;
13941;SDS011;7043;51.630;7.254;2024-02-26T09:52:14;4.07;;;3.60;;
13941;SDS011;7043;51.630;7.254;2024-02-26T09:54:40;3.60;;;3.30;;
13941;SDS011;7043;51.630;7.254;2024-02-26T09:57:06;3.53;;;3.03;;
13941;SDS011;7043;51.630;7.254;2024-02-26T09:59:39;3.70;;;3.00;;
13941;SDS011;7043;51.630;7.254;2024-02-26T10:02:07;3.10;;;2.80;;
13941;SDS011;7043;51.630;7.254;2024-02-26T10:04:35;2.90;;;2.60;;
13941;SDS011;7043;51.630;7.254;2024-02-26T10:07:01;3.50;;;2.90;;
13941;SDS011;7043;51.630;7.254;2024-02-26T10:09:29;3.70;;;2.73;;
13941;SDS011;7043;51.630;7.254;2024-02-26T10:11:56;4.10;;;2.83;;
13941;SDS011;7043;51.630;7.254;2024-02-26T10:14:22;3.60;;;3.10;;
13941;SDS011;7043;51.630;7.254;2024-02-26T10:16:49;5.23;;;4.73;;
13941;SDS011;7043;51.630;7.254;2024-02-26T10:19:28;3.47;;;3.13;;
13941;SDS011;7043;51.630;7.254;2024-02-26T10:21:58;4.70;;;4.20;;
13941;SDS011;7043;51.630;7.254;2024-02-26T10:24:25;4.07;;;3.30;;
13941;SDS011;7043;51.630;7.254;2024-02-26T10:26:54;3.73;;;3.00;;
13941;SDS011;7043;51.630;7.254;2024-02-26T10:29:20;3.20;;;2.87;;
13941;SDS011;7043;51.630;7.254;2024-02-26T10:31:47;3.40;;;3.10;;
13941;SDS011;7043;51.630;7.254;2024-02-26T10:34:14;3.60;;;3.10;;
13941;SDS011;7043;51.630;7.254;2024-02-26T10:36:41;3.83;;;3.30;;
13941;SDS011;7043;51.630;7.254;2024-02-26T10:39:08;3.50;;;3.20;;
13941;SDS011;7043;51.630;7.254;2024-02-26T10:41:34;3.70;;;3.07;;
13941;SDS011;7043;51.630;7.254;2024-02-26T10:44:00;3.80;;;3.40;;
13941;SDS011;7043;51.630;7.254;2024-02-26T10:46:27;4.70;;;3.87;;
13941;SDS011;7043;51.630;7.254;2024-02-26T10:48:53;5.90;;;4.00;;
13941;SDS011;7043;51.630;7.254;2024-02-26T10:51:29;8.80;;;8.13;;
13941;SDS011;7043;51.630;7.254;2024-02-26T10:53:56;7.23;;;6.53;;
13941;SDS011;7043;51.630;7.254;2024-02-26T10:56:27;4.83;;;4.30;;
13941;SDS011;7043;51.630;7.254;2024-02-26T10:58:57;6.37;;;5.77;;
13941;SDS011;7043;51.630;7.254;2024-02-26T11:01:24;5.27;;;4.77;;
13941;SDS011;7043;51.630;7.254;2024-02-26T11:03:51;5.97;;;5.37;;
13941;SDS011;7043;51.630;7.254;2024-02-26T11:06:17;6.07;;;5.47;;
13941;SDS011;7043;51.630;7.254;2024-02-26T11:08:44;5.97;;;5.47;;
13941;SDS011;7043;51.630;7.254;2024-02-26T11:11:10;6.17;;;5.57;;
13941;SDS011;7043;51.630;7.254;2024-02-26T11:13:40;7.17;;;6.50;;
13941;SDS011;7043;51.630;7.254;2024-02-26T11:16:09;8.80;;;6.63;;
13941;SDS011;7043;51.630;7.254;2024-02-26T11:18:35;7.33;;;6.30;;
13941;SDS011;7043;51.630;7.254;2024-02-26T11:21:01;7.40;;;6.70;;
13941;SDS011;7043;51.630;7.254;2024-02-26T11:23:28;7.00;;;6.33;;
13941;SDS011;7043;51.630;7.254;2024-02-26T11:25:55;7.60;;;6.37;;
13941;SDS011;7043;51.630;7.254;2024-02-26T11:28:22;7.77;;;6.43;;
13941;SDS011;7043;51.630;7.254;2024-02-26T11:30:50;7.57;;;6.30;;
13941;SDS011;7043;51.630;7.254;2024-02-26T11:33:16;8.10;;;6.93;;
13941;SDS011;7043;51.630;7.254;2024-02-26T11:35:42;8.43;;;7.03;;
13941;SDS011;7043;51.630;7.254;2024-02-26T11:38:09;9.10;;;7.70;;
13941;SDS011;7043;51.630;7.254;2024-02-26T11:40:43;8.30;;;6.97;;
13941;SDS011;7043;51.630;7.254;2024-02-26T11:43:09;8.33;;;6.83;;
13941;SDS011;7043;51.630;7.254;2024-02-26T11:48:11;8.47;;;7.00;;
13941;SDS011;7043;51.630;7.254;2024-02-26T11:50:41;19.77;;;16.70;;
13941;SDS011;7043;51.630;7.254;2024-02-26T11:58:38;8.00;;;7.20;;
13941;SDS011;7043;51.630;7.254;2024-02-26T12:01:05;8.50;;;7.50;;
13941;SDS011;7043;51.630;7.254;2024-02-26T12:03:31;6.77;;;6.17;;
13941;SDS011;7043;51.630;7.254;2024-02-26T12:05:57;7.80;;;6.20;;
13941;SDS011;7043;51.630;7.254;2024-02-26T12:08:23;7.63;;;6.63;;
13941;SDS011;7043;51.630;7.254;2024-02-26T12:10:50;6.57;;;5.87;;
13941;SDS011;7043;51.630;7.254;2024-02-26T12:13:19;7.23;;;6.53;;
13941;SDS011;7043;51.630;7.254;2024-02-26T12:15:54;8.73;;;6.47;;
13941;SDS011;7043;51.630;7.254;2024-02-26T12:18:20;7.13;;;6.30;;
13941;SDS011;7043;51.630;7.254;2024-02-26T12:20:46;7.43;;;6.57;;
13941;SDS011;7043;51.630;7.254;2024-02-26T12:23:16;7.47;;;5.93;;
13941;SDS011;7043;51.630;7.254;2024-02-26T12:25:43;6.87;;;5.90;;
13941;SDS011;7043;51.630;7.254;2024-02-26T12:28:09;7.33;;;5.83;;
13941;SDS011;7043;51.630;7.254;2024-02-26T12:30:35;6.93;;;6.20;;
13941;SDS011;7043;51.630;7.254;2024-02-26T12:33:01;6.67;;;5.60;;
13941;SDS011;7043;51.630;7.254;2024-02-26T12:35:28;6.73;;;5.47;;
13941;SDS011;7043;51.630;7.254;2024-02-26T12:37:56;6.53;;;5.93;;
13941;SDS011;7043;51.630;7.254;2024-02-26T12:40:22;6.63;;;5.87;;
13941;SDS011;7043;51.630;7.254;2024-02-26T12:42:48;5.57;;;5.07;;
13941;SDS011;7043;51.630;7.254;2024-02-26T12:45:14;6.93;;;5.43;;
13941;SDS011;7043;51.630;7.254;2024-02-26T12:47:42;7.30;;;6.13;;
13941;SDS011;7043;51.630;7.254;2024-02-26T12:50:08;6.10;;;5.50;;
13941;SDS011;7043;51.630;7.254;2024-02-26T12:52:35;6.27;;;5.63;;
13941;SDS011;7043;51.630;7.254;2024-02-26T12:55:02;7.10;;;5.83;;
13941;SDS011;7043;51.630;7.254;2024-02-26T12:57:29;7.30;;;6.60;;
13941;SDS011;7043;51.630;7.254;2024-02-26T12:59:55;6.07;;;4.90;;
13941;SDS011;7043;51.630;7.254;2024-02-26T13:02:22;5.97;;;5.47;;
13941;SDS011;7043;51.630;7.254;2024-02-26T13:04:48;7.13;;;5.70;;
13941;SDS011;7043;51.630;7.254;2024-02-26T13:07:14;5.90;;;5.30;;
13941;SDS011;7043;51.630;7.254;2024-02-26T13:09:40;5.67;;;5.13;;
13941;SDS011;7043;51.630;7.254;2024-02-26T13:12:06;5.87;;;5.30;;
13941;SDS011;7043;51.630;7.254;2024-02-26T13:14:33;4.80;;;4.40;;
13941;SDS011;7043;51.630;7.254;2024-02-26T13:16:59;7.80;;;7.10;;
13941;SDS011;7043;51.630;7.254;2024-02-26T13:19:25;5.23;;;4.73;;
13941;SDS011;7043;51.630;7.254;2024-02-26T13:21:52;5.53;;;5.03;;
13941;SDS011;7043;51.630;7.254;2024-02-26T13:24:21;5.50;;;5.00;;
13941;SDS011;7043;51.630;7.254;2024-02-26T13:26:55;5.93;;;5.33;;
13941;SDS011;7043;51.630;7.254;2024-02-26T13:29:22;7.17;;;6.47;;
13941;SDS011;7043;51.630;7.254;2024-02-26T13:31:54;4.97;;;4.53;;
13941;SDS011;7043;51.630;7.254;2024-02-26T13:34:24;4.73;;;3.70;;
13941;SDS011;7043;51.630;7.254;2024-02-26T13:36:51;5.30;;;4.80;;
13941;SDS011;7043;51.630;7.254;2024-02-26T13:39:24;4.90;;;4.40;;
13941;SDS011;7043;51.630;7.254;2024-02-26T13:41:50;5.80;;;5.13;;
13941;SDS011;7043;51.630;7.254;2024-02-26T13:44:17;5.40;;;4.90;;
13941;SDS011;7043;51.630;7.254;2024-02-26T13:46:43;7.07;;;5.50;;
13941;SDS011;7043;51.630;7.254;2024-02-26T13:49:12;5.90;;;5.30;;
13941;SDS011;7043;51.630;7.254;2024-02-26T13:51:38;6.10;;;5.50;;
13941;SDS011;7043;51.630;7.254;2024-02-26T13:54:04;5.57;;;4.67;;
13941;SDS011;7043;51.630;7.254;2024-02-26T13:56:31;5.73;;;5.20;;
13941;SDS011;7043;51.630;7.254;2024-02-26T13:58:57;5.40;;;4.90;;
13941;SDS011;7043;51.630;7.254;2024-02-26T14:01:23;5.40;;;4.90;;
13941;SDS011;7043;51.630;7.254;2024-02-26T14:03:49;4.93;;;4.53;;
13941;SDS011;7043;51.630;7.254;2024-02-26T14:06:16;4.63;;;4.13;;
13941;SDS011;7043;51.630;7.254;2024-02-26T14:08:41;5.30;;;4.80;;
13941;SDS011;7043;51.630;7.254;2024-02-26T14:11:08;5.93;;;4.87;;
13941;SDS011;7043;51.630;7.254;2024-02-26T14:13:34;4.57;;;3.97;;
13941;SDS011;7043;51.630;7.254;2024-02-26T14:16:00;5.40;;;4.73;;
13941;SDS011;7043;51.630;7.254;2024-02-26T14:18:26;5.23;;;4.27;;
13941;SDS011;7043;51.630;7.254;2024-02-26T14:20:52;4.63;;;4.23;;
13941;SDS011;7043;51.630;7.254;2024-02-26T14:23:18;5.00;;;4.30;;
13941;SDS011;7043;51.630;7.254;2024-02-26T14:25:44;4.70;;;3.60;;
13941;SDS011;7043;51.630;7.254;2024-02-26T14:28:10;5.60;;;4.00;;
13941;SDS011;7043;51.630;7.254;2024-02-26T14:30:36;4.37;;;3.90;;
13941;SDS011;7043;51.630;7.254;2024-02-26T14:33:02;4.33;;;3.93;;
13941;SDS011;7043;51.630;7.254;2024-02-26T14:35:28;3.60;;;3.30;;
13941;SDS011;7043;51.630;7.254;2024-02-26T14:37:54;4.20;;;3.80;;
13941;SDS011;7043;51.630;7.254;2024-02-26T14:40:25;4.30;;;3.80;;
13941;SDS011;7043;51.630;7.254;2024-02-26T14:42:51;3.83;;;3.37;;
13941;SDS011;7043;51.630;7.254;2024-02-26T14:45:17;4.67;;;3.93;;
13941;SDS011;7043;51.630;7.254;2024-02-26T14:47:43;4.37;;;3.97;;
13941;SDS011;7043;51.630;7.254;2024-02-26T14:50:09;5.40;;;4.50;;
13941;SDS011;7043;51.630;7.254;2024-02-26T14:52:36;9.23;;;8.17;;
13941;SDS011;7043;51.630;7.254;2024-02-26T14:55:02;29.10;;;21.53;;
13941;SDS011;7043;51.630;7.254;2024-02-26T14:57:30;15.73;;;12.87;;
13941;SDS011;7043;51.630;7.254;2024-02-26T14:59:56;14.20;;;10.73;;
13941;SDS011;7043;51.630;7.254;2024-02-26T15:02:22;43.70;;;27.30;;
13941;SDS011;7043;51.630;7.254;2024-02-26T15:04:48;56.20;;;34.07;;